createdAt,value
2022-12-28T00:01:21.474Z,100644.84
2022-12-28T00:03:49.264Z,100627.97
2022-12-28T00:06:17.353Z,100644.84
2022-12-28T00:08:44.444Z,100653.56
2022-12-28T00:11:26.475Z,100654.53
2022-12-28T00:13:59.000Z,100659.81
2022-12-28T00:16:27.960Z,100661.59
2022-12-28T00:18:57.156Z,100675.59
2022-12-28T00:21:24.558Z,100662.56
2022-12-28T00:23:53.874Z,100665.06
2022-12-28T00:26:24.220Z,100659.44
2022-12-28T00:28:51.286Z,100668.66
2022-12-28T00:31:18.108Z,100664.22
2022-12-28T00:33:45.694Z,100670.47
2022-12-28T00:36:14.488Z,100670.47
2022-12-28T00:38:41.828Z,100664.00
2022-12-28T00:41:09.679Z,100658.50
2022-12-28T00:43:37.416Z,100673.34
2022-12-28T00:46:04.880Z,100682.91
2022-12-28T00:48:34.351Z,100667.03
2022-12-28T00:51:12.162Z,100680.38
2022-12-28T00:53:38.882Z,100687.47
2022-12-28T00:56:06.139Z,100691.03
2022-12-28T00:58:33.492Z,100691.91
2022-12-28T01:01:00.776Z,100691.91
2022-12-28T01:03:27.915Z,100683.88
2022-12-28T01:05:54.610Z,100687.34
2022-12-28T01:08:22.203Z,100699.06
2022-12-28T01:10:49.654Z,100693.59
2022-12-28T01:13:16.304Z,100699.06
2022-12-28T01:15:43.114Z,100692.97
2022-12-28T01:18:10.146Z,100700.88
2022-12-28T01:20:40.587Z,100686.53
2022-12-28T01:23:08.976Z,100694.03
2022-12-28T01:25:37.655Z,100690.72
2022-12-28T01:28:04.974Z,100677.06
2022-12-28T01:30:31.618Z,100693.91
2022-12-28T01:32:59.690Z,100692.34
2022-12-28T01:35:26.537Z,100686.62
2022-12-28T01:37:56.864Z,100683.31
2022-12-28T01:40:23.780Z,100694.53
2022-12-28T01:42:50.374Z,100700.12
2022-12-28T01:45:22.173Z,100698.34
2022-12-28T01:47:50.783Z,100701.00
2022-12-28T01:50:23.250Z,100701.81
2022-12-28T01:52:58.106Z,100702.63
2022-12-28T01:55:33.581Z,100692.84
2022-12-28T01:58:09.431Z,100703.75
2022-12-28T02:00:36.255Z,100689.28
2022-12-28T02:03:09.493Z,100696.22
2022-12-28T02:05:47.171Z,100701.00
2022-12-28T02:08:38.688Z,100698.59
2022-12-28T02:11:07.101Z,100708.88
2022-12-28T02:13:35.076Z,100690.22
2022-12-28T02:16:05.273Z,100706.25
2022-12-28T02:18:32.681Z,100710.53
2022-12-28T02:21:20.710Z,100702.19
2022-12-28T02:24:10.901Z,100714.03
2022-12-28T02:26:51.644Z,100712.22
2022-12-28T02:29:48.978Z,100715.94
2022-12-28T02:32:28.035Z,100708.28
2022-12-28T02:35:19.122Z,100713.16
2022-12-28T02:37:50.331Z,100711.41
2022-12-28T02:40:22.569Z,100718.44
2022-12-28T02:42:50.407Z,100711.28
2022-12-28T02:45:48.456Z,100732.22
2022-12-28T02:48:33.972Z,100720.72
2022-12-28T02:51:43.721Z,100710.91
2022-12-28T02:55:02.976Z,100727.78
2022-12-28T02:57:45.097Z,100733.03
2022-12-28T03:00:20.747Z,100731.25
2022-12-28T03:02:59.917Z,100731.97
2022-12-28T03:05:54.246Z,100734.84
2022-12-28T03:08:37.708Z,100744.53
2022-12-28T03:11:10.493Z,100746.19
2022-12-28T03:13:53.179Z,100743.56
2022-12-28T03:16:27.196Z,100740.81
2022-12-28T03:19:21.034Z,100742.37
2022-12-28T03:22:07.815Z,100745.72
2022-12-28T03:24:56.086Z,100756.25
2022-12-28T03:27:42.004Z,100752.91
2022-12-28T03:30:36.926Z,100741.31
2022-12-28T03:33:04.517Z,100741.44
2022-12-28T03:35:40.711Z,100746.69
2022-12-28T03:38:12.640Z,100744.88
2022-12-28T03:40:49.035Z,100748.22
2022-12-28T03:43:42.842Z,100736.53
2022-12-28T03:46:34.139Z,100753.34
2022-12-28T03:49:02.022Z,100744.63
2022-12-28T03:51:32.646Z,100749.91
2022-12-28T03:54:00.321Z,100756.13
2022-12-28T03:56:28.737Z,100744.53
2022-12-28T03:58:56.930Z,100762.37
2022-12-28T04:01:24.264Z,100757.81
2022-12-28T04:03:51.400Z,100740.22
2022-12-28T04:06:20.103Z,100750.62
2022-12-28T04:08:47.383Z,100775.66
2022-12-28T04:11:14.932Z,100772.03
2022-12-28T04:13:42.157Z,100767.62
2022-12-28T04:16:12.184Z,100777.31
2022-12-28T04:18:42.020Z,100774.91
2022-12-28T04:21:11.107Z,100780.91
2022-12-28T04:23:40.051Z,100787.84
2022-12-28T04:26:11.672Z,100786.31
2022-12-28T04:28:40.534Z,100793.97
2022-12-28T04:31:12.345Z,100790.34
2022-12-28T04:33:41.716Z,100769.88
2022-12-28T04:36:12.674Z,100801.72
2022-12-28T04:38:40.098Z,100794.78
2022-12-28T04:41:08.708Z,100800.06
2022-12-28T04:43:36.336Z,100803.63
2022-12-28T04:46:06.205Z,100795.72
2022-12-28T04:48:33.980Z,100795.03
2022-12-28T04:51:07.995Z,100800.41
2022-12-28T04:53:39.956Z,100807.72
2022-12-28T04:56:07.442Z,100796.94
2022-12-28T04:58:34.602Z,100808.19
2022-12-28T05:01:13.400Z,100797.91
2022-12-28T05:03:43.053Z,100805.09
2022-12-28T05:06:15.917Z,100788.56
2022-12-28T05:08:43.812Z,100811.53
2022-12-28T05:11:16.381Z,100800.31
2022-12-28T05:13:43.402Z,100798.38
2022-12-28T05:16:13.075Z,100804.59
2022-12-28T05:18:39.844Z,100809.87
2022-12-28T05:21:19.181Z,100819.91
2022-12-28T05:23:45.978Z,100823.28
2022-12-28T05:26:15.008Z,100841.59
2022-12-28T05:28:42.187Z,100826.84
2022-12-28T05:31:22.447Z,100829.38
2022-12-28T05:37:42.814Z,100851.50
2022-12-28T05:44:19.511Z,100871.13
2022-12-28T05:49:37.369Z,100876.38
2022-12-28T05:52:04.132Z,100884.53
2022-12-28T05:54:30.759Z,100880.31
2022-12-28T05:56:57.669Z,100875.19
2022-12-28T05:59:24.386Z,100862.38
2022-12-28T06:01:51.304Z,100873.00
2022-12-28T06:04:21.239Z,100867.75
2022-12-28T06:06:49.108Z,100883.78
2022-12-28T06:09:16.020Z,100889.28
2022-12-28T06:11:43.575Z,100894.66
2022-12-28T06:14:10.245Z,100891.03
2022-12-28T06:16:40.860Z,100896.56
2022-12-28T06:19:10.283Z,100904.47
2022-12-28T06:21:40.055Z,100918.44
2022-12-28T06:24:08.292Z,100917.50
2022-12-28T06:26:37.080Z,100915.59
2022-12-28T06:29:04.412Z,100917.28
2022-12-28T06:31:36.481Z,100913.66
2022-12-28T06:34:04.778Z,100939.16
2022-12-28T06:36:35.063Z,100938.31
2022-12-28T06:39:04.329Z,100945.47
2022-12-28T06:41:31.356Z,100943.81
2022-12-28T06:43:58.548Z,100943.06
2022-12-28T06:46:28.347Z,100941.87
2022-12-28T06:48:55.445Z,100952.66
2022-12-28T06:51:24.949Z,100953.13
2022-12-28T06:53:53.557Z,100952.19
2022-12-28T06:56:23.236Z,100962.03
2022-12-28T06:58:52.696Z,100964.19
2022-12-28T07:01:25.869Z,100963.00
2022-12-28T07:03:54.969Z,100964.94
2022-12-28T07:06:25.302Z,100965.81
2022-12-28T07:08:57.764Z,100961.12
2022-12-28T07:11:24.839Z,100961.84
2022-12-28T07:13:51.542Z,100969.63
2022-12-28T07:16:20.777Z,100970.47
2022-12-28T07:18:48.415Z,100967.84
2022-12-28T07:21:22.569Z,100975.13
2022-12-28T07:23:51.336Z,100975.13
2022-12-28T07:26:21.100Z,100969.84
2022-12-28T07:28:49.686Z,100976.69
2022-12-28T07:31:20.242Z,100962.31
2022-12-28T07:33:48.146Z,100977.41
2022-12-28T07:36:17.646Z,100958.63
2022-12-28T07:38:45.072Z,100984.84
2022-12-28T07:41:17.433Z,101003.37
2022-12-28T07:43:44.768Z,100989.63
2022-12-28T07:46:20.791Z,100985.78
2022-12-28T07:48:49.076Z,100978.81
2022-12-28T07:51:18.281Z,100996.66
2022-12-28T07:53:47.491Z,101003.84
2022-12-28T07:56:15.420Z,101007.53
2022-12-28T08:01:11.852Z,101024.28
2022-12-28T08:03:40.012Z,101002.13
2022-12-28T08:06:09.891Z,100993.59
2022-12-28T08:08:41.568Z,101009.56
2022-12-28T08:11:15.356Z,101022.72
2022-12-28T08:13:43.887Z,101014.09
2022-12-28T08:16:12.628Z,101008.94
2022-12-28T08:18:40.414Z,100995.75
2022-12-28T08:21:11.202Z,101024.97
2022-12-28T08:23:38.169Z,101024.13
2022-12-28T08:26:09.109Z,101011.69
2022-12-28T08:28:37.053Z,101026.41
2022-12-28T08:31:19.851Z,101015.66
2022-12-28T08:33:47.563Z,101007.63
2022-12-28T08:36:14.626Z,101017.34
2022-12-28T08:38:43.415Z,101017.22
2022-12-28T08:41:13.233Z,101024.78
2022-12-28T08:43:41.038Z,101025.50
2022-12-28T08:46:13.036Z,101030.63
2022-12-28T08:48:40.802Z,101034.84
2022-12-28T08:51:10.265Z,101044.44
2022-12-28T08:53:38.205Z,101033.03
2022-12-28T08:56:21.879Z,101040.81
2022-12-28T08:58:49.578Z,101036.31
2022-12-28T09:01:20.343Z,101033.56
2022-12-28T09:03:50.159Z,101041.34
2022-12-28T09:06:20.687Z,101040.37
2022-12-28T09:09:09.007Z,101029.00
2022-12-28T09:11:36.917Z,101039.19
2022-12-28T09:14:05.491Z,101031.06
2022-12-28T09:16:32.429Z,101042.28
2022-12-28T09:19:02.677Z,101012.97
2022-12-28T09:21:31.884Z,101025.31
2022-12-28T09:23:59.000Z,101029.53
2022-12-28T09:26:31.972Z,101030.13
2022-12-28T09:29:01.188Z,101033.50
2022-12-28T09:31:31.503Z,101026.41
2022-12-28T09:36:48.542Z,101041.88
2022-12-28T09:39:17.933Z,101036.47
2022-12-28T09:41:57.839Z,101045.22
2022-12-28T09:44:36.838Z,101051.94
2022-12-28T09:47:36.071Z,101047.41
2022-12-28T09:50:09.216Z,101045.38
2022-12-28T09:52:37.699Z,101045.97
2022-12-28T09:55:13.855Z,101047.41
2022-12-28T09:57:45.573Z,101049.81
2022-12-28T10:00:17.556Z,101039.53
2022-12-28T10:02:46.187Z,101030.88
2022-12-28T10:05:13.008Z,101048.13
2022-12-28T10:07:39.716Z,101032.66
2022-12-28T10:10:07.047Z,101035.31
2022-12-28T10:12:33.973Z,101050.66
2022-12-28T10:15:01.226Z,101050.41
2022-12-28T10:17:30.405Z,101042.88
2022-12-28T10:19:58.640Z,101051.63
2022-12-28T10:22:38.053Z,101054.97
2022-12-28T10:25:18.103Z,101056.66
2022-12-28T10:27:45.455Z,101066.34
2022-12-28T10:30:26.869Z,101045.25
2022-12-28T10:33:01.792Z,101049.22
2022-12-28T10:35:41.019Z,101046.22
2022-12-28T10:38:21.929Z,101049.22
2022-12-28T10:40:58.921Z,101034.81
2022-12-28T10:43:32.462Z,101064.19
2022-12-28T10:46:00.769Z,101062.03
2022-12-28T10:48:31.908Z,101063.44
2022-12-28T10:51:11.101Z,101058.06
2022-12-28T10:53:51.670Z,101057.84
2022-12-28T10:56:23.886Z,101064.28
2022-12-28T10:58:53.201Z,101068.25
2022-12-28T11:01:26.366Z,101060.91
2022-12-28T11:03:56.104Z,101061.03
2022-12-28T11:06:51.753Z,101058.16
2022-12-28T11:09:21.779Z,101068.81
2022-12-28T11:11:52.313Z,101069.06
2022-12-28T11:14:36.674Z,101058.06
2022-12-28T11:17:20.697Z,101051.59
2022-12-28T11:19:50.430Z,101059.63
2022-12-28T11:22:29.355Z,101052.16
2022-12-28T11:24:59.159Z,101082.75
2022-12-28T11:27:26.292Z,101074.09
2022-12-28T11:29:55.044Z,101053.84
2022-12-28T11:32:27.648Z,101078.53
2022-12-28T11:34:56.982Z,101077.22
2022-12-28T11:37:23.862Z,101078.69
2022-12-28T11:39:52.384Z,101064.91
2022-12-28T11:42:53.421Z,101090.81
2022-12-28T11:45:51.286Z,101096.31
2022-12-28T11:48:43.460Z,101087.78
2022-12-28T11:51:19.627Z,101099.56
2022-12-28T11:53:46.539Z,101085.53
2022-12-28T11:56:18.803Z,101118.63
2022-12-28T11:59:06.182Z,101093.19
2022-12-28T12:01:35.404Z,101099.66
2022-12-28T12:04:05.240Z,101110.22
2022-12-28T12:06:44.129Z,101114.41
2022-12-28T12:09:26.016Z,101114.28
2022-12-28T12:11:59.224Z,101116.94
2022-12-28T12:14:44.930Z,101115.25
2022-12-28T12:17:59.595Z,101130.22
2022-12-28T12:20:43.608Z,101119.94
2022-12-28T12:23:51.280Z,101114.03
2022-12-28T12:26:35.542Z,101113.56
2022-12-28T12:29:07.796Z,101115.59
2022-12-28T12:31:43.356Z,101122.53
2022-12-28T12:34:20.307Z,101130.31
2022-12-28T12:37:01.700Z,101115.97
2022-12-28T12:39:53.498Z,101131.19
2022-12-28T12:42:45.386Z,101131.41
2022-12-28T12:45:25.809Z,101141.09
2022-12-28T12:47:59.772Z,101136.81
2022-12-28T12:50:47.114Z,101119.16
2022-12-28T12:53:51.812Z,101139.69
2022-12-28T12:56:45.910Z,101151.06
2022-12-28T12:59:22.200Z,101149.25
2022-12-28T13:02:20.087Z,101145.66
2022-12-28T13:04:47.226Z,101139.41
2022-12-28T13:07:20.507Z,101152.50
2022-12-28T13:09:49.004Z,101155.25
2022-12-28T13:12:19.104Z,101149.47
2022-12-28T13:14:47.862Z,101147.06
2022-12-28T16:39:48.178Z,101171.34
2022-12-28T16:42:15.271Z,101171.34
2022-12-28T16:44:42.391Z,101165.06
2022-12-28T16:47:11.356Z,101172.19
2022-12-28T16:49:41.644Z,101174.94
2022-12-28T16:52:08.580Z,101175.16
2022-12-28T16:54:35.223Z,101173.78
2022-12-28T16:57:02.133Z,101174.97
2022-12-28T16:59:29.122Z,101165.63
2022-12-28T17:01:57.302Z,101163.19
2022-12-28T17:04:25.010Z,101153.56
2022-12-28T17:06:52.429Z,101152.91
2022-12-28T17:09:22.460Z,101162.16
2022-12-28T17:11:50.829Z,101164.16
2022-12-28T17:14:36.000Z,101137.16
2022-12-28T17:17:04.635Z,101166.38
2022-12-28T17:19:31.332Z,101164.91
2022-12-28T17:21:58.009Z,101163.34
2022-12-28T17:24:25.000Z,101162.78
2022-12-28T17:26:51.813Z,101146.84
2022-12-28T17:29:18.565Z,101155.03
2022-12-28T17:31:45.586Z,101144.22
2022-12-28T17:34:12.464Z,101134.63
2022-12-28T17:36:39.223Z,101143.06
2022-12-28T17:39:06.232Z,101151.66
2022-12-28T17:41:33.265Z,101147.34
2022-12-28T17:44:00.497Z,101144.72
2022-12-28T17:46:29.886Z,101142.09
2022-12-28T17:48:58.715Z,101126.84
2022-12-28T17:51:28.431Z,101146.41
2022-12-28T17:53:56.512Z,101144.72
2022-12-28T17:56:23.529Z,101143.06
2022-12-28T17:58:54.405Z,101145.56
2022-12-28T18:01:21.520Z,101146.31
2022-12-28T18:03:48.600Z,101144.31
2022-12-28T18:06:15.261Z,101141.69
2022-12-28T18:08:42.019Z,101126.09
2022-12-28T18:11:11.163Z,101141.03
2022-12-28T18:13:39.205Z,101140.72
2022-12-28T18:16:07.297Z,101143.25
2022-12-28T18:18:35.280Z,101142.28
2022-12-28T18:21:07.666Z,101136.19
2022-12-28T18:23:35.652Z,101148.28
2022-12-28T18:26:04.869Z,101144.69
2022-12-28T18:28:32.927Z,101147.22
2022-12-28T18:31:02.455Z,101152.28
2022-12-28T18:33:30.926Z,101151.44
2022-12-28T18:35:58.501Z,101155.03
2022-12-28T18:38:25.495Z,101155.03
2022-12-28T18:40:54.257Z,101155.84
2022-12-28T18:43:21.238Z,101160.06
2022-12-28T18:45:53.417Z,101139.66
2022-12-28T18:48:20.318Z,101151.22
2022-12-28T18:51:00.487Z,101143.44
2022-12-28T18:53:28.936Z,101153.72
2022-12-28T18:56:02.393Z,101145.00
2022-12-28T18:58:32.681Z,101135.97
2022-12-28T19:01:32.930Z,101139.03
2022-12-28T19:04:01.555Z,101126.38
2022-12-28T19:06:29.452Z,101129.34
2022-12-28T19:09:00.024Z,101124.72
2022-12-28T19:11:28.149Z,101139.97
2022-12-28T19:13:54.981Z,101132.06
2022-12-28T19:16:27.125Z,101133.78
2022-12-28T19:18:58.306Z,101130.28
2022-12-28T19:21:27.297Z,101116.50
2022-12-28T19:23:55.549Z,101113.34
2022-12-28T19:26:23.789Z,101126.00
2022-12-28T19:28:50.973Z,101124.28
2022-12-28T19:31:18.079Z,101119.88
2022-12-28T19:33:45.638Z,101121.66
2022-12-28T19:36:12.751Z,101121.56
2022-12-28T19:38:39.751Z,101112.31
2022-12-28T19:41:08.992Z,101126.81
2022-12-28T19:43:36.205Z,101120.84
2022-12-28T19:46:15.506Z,101125.13
2022-12-28T19:48:43.145Z,101127.75
2022-12-28T19:51:10.778Z,101105.19
2022-12-28T19:53:38.958Z,101122.59
2022-12-28T19:56:09.579Z,101129.66
2022-12-28T19:58:39.038Z,101126.09
2022-12-28T20:01:13.347Z,101126.00
2022-12-28T20:03:41.519Z,101105.47
2022-12-28T20:06:11.296Z,101119.03
2022-12-28T20:08:38.937Z,101116.31
2022-12-28T20:11:06.837Z,101127.03
2022-12-28T20:13:34.242Z,101121.78
2022-12-28T20:16:01.210Z,101126.28
2022-12-28T20:18:28.187Z,101128.09
2022-12-28T20:23:51.552Z,101133.56
2022-12-28T20:26:19.772Z,101131.87
2022-12-28T20:28:49.063Z,101127.56
2022-12-28T20:31:16.394Z,101125.16
2022-12-28T20:33:44.069Z,101124.31
2022-12-28T20:36:13.764Z,101130.53
2022-12-28T20:38:40.799Z,101122.75
2022-12-28T20:41:31.712Z,101112.56
2022-12-28T20:44:00.024Z,101124.72
2022-12-28T20:46:27.507Z,101114.66
2022-12-28T20:48:54.665Z,101120.84
2022-12-28T20:51:22.064Z,101123.47
2022-12-28T20:53:48.767Z,101125.37
2022-12-28T20:56:15.588Z,101128.84
2022-12-28T20:58:42.808Z,101107.63
2022-12-28T21:01:12.743Z,101110.31
2022-12-28T21:03:39.590Z,101105.94
2022-12-28T21:06:06.856Z,101107.69
2022-12-28T21:08:34.205Z,101112.03
2022-12-28T21:11:01.434Z,101103.53
2022-12-28T21:13:28.620Z,101110.88
2022-12-28T21:15:55.609Z,101114.22
2022-12-28T21:18:22.593Z,101108.13
2022-12-28T21:20:52.259Z,101091.63
2022-12-28T21:23:19.146Z,101105.41
2022-12-28T21:25:46.250Z,101100.84
2022-12-28T21:28:13.688Z,101099.91
2022-12-28T21:30:40.702Z,101105.19
2022-12-28T21:33:07.801Z,101101.59
2022-12-28T21:35:35.036Z,101093.63
2022-12-28T21:38:01.914Z,101073.94
2022-12-28T21:40:28.865Z,101077.94
2022-12-28T21:42:55.928Z,101074.56
2022-12-28T21:45:22.632Z,101096.53
2022-12-28T21:47:49.313Z,101100.75
2022-12-28T21:50:16.201Z,101097.16
2022-12-28T21:52:42.917Z,101098.00
2022-12-28T21:55:28.373Z,101104.94
2022-12-28T21:57:55.353Z,101099.69
2022-12-28T22:00:40.977Z,101102.44
2022-12-28T22:03:26.447Z,101095.47
2022-12-28T22:06:02.709Z,101090.44
2022-12-28T22:08:51.913Z,101092.97
2022-12-28T22:11:37.881Z,101099.88
2022-12-28T22:14:07.622Z,101101.34
2022-12-28T22:16:35.764Z,101088.09
2022-12-28T22:19:04.173Z,101084.53
2022-12-28T22:21:31.837Z,101086.22
2022-12-28T22:23:58.483Z,101074.59
2022-12-28T22:26:25.291Z,101053.91
2022-12-28T22:28:52.154Z,101058.00
2022-12-28T22:31:18.922Z,101059.69
2022-12-28T22:33:46.150Z,101050.94
2022-12-28T22:36:15.818Z,101051.81
2022-12-28T22:38:42.628Z,101057.78
2022-12-28T22:41:09.506Z,101054.22
2022-12-28T22:43:37.001Z,101052.50
2022-12-28T22:46:06.004Z,101052.50
2022-12-28T22:48:33.237Z,101037.50
2022-12-28T22:51:08.894Z,101054.22
2022-12-28T22:53:38.949Z,101057.56
2022-12-28T22:56:09.639Z,101060.06
2022-12-28T22:58:36.490Z,101055.62
2022-12-28T23:01:09.021Z,101046.81
2022-12-28T23:03:43.716Z,101045.12
2022-12-28T23:06:12.286Z,101041.44
2022-12-28T23:08:39.566Z,101046.69
2022-12-28T23:11:30.460Z,101046.59
2022-12-28T23:14:18.109Z,101041.22
2022-12-28T23:16:45.026Z,101032.25
2022-12-28T23:19:31.177Z,101029.75
2022-12-28T23:22:16.688Z,101038.13
2022-12-28T23:25:02.745Z,101038.03
2022-12-28T23:27:39.278Z,101029.19
2022-12-28T23:30:09.193Z,101026.22
2022-12-28T23:32:35.922Z,101031.34
2022-12-28T23:35:03.692Z,101030.41
2022-12-28T23:37:31.386Z,101028.62
2022-12-28T23:39:58.010Z,101025.75
2022-12-28T23:42:24.625Z,101009.84
2022-12-28T23:44:51.638Z,101019.16
2022-12-28T23:47:19.755Z,101028.16
2022-12-28T23:49:46.836Z,101032.38
2022-12-28T23:52:13.854Z,101032.12
2022-12-28T23:54:40.421Z,101031.19
2022-12-28T23:57:07.151Z,101022.22
2022-12-28T23:59:34.102Z,101022.09
